Caballo, New Mexico
Current Conditions -  °F | °C
As of 8:53 PM on Monday 22 Dec 2014 (Local Time) from KTCS Reporting Station
Clear Clear  
Wind Chill: 56°   Ceiling: Unl
Heat Index: 56°   Visibility: 10mi
Dew Point: 31°   Wind: 20mph
Humidity: 39%   Direction: 300°WNW
Pressure: 29.77"   Gusts: 25mph
Location:  32.97°N, 107.31°W
Report Text: KTCS 230353Z AUTO 30017G22KT 10SM CLR 13/M01 A2977 RMK AO2 PK WND 30029/0339 SLP031 T01331006 TSNO
Loading
Personal Weather Stations






























Interactive Weather Map New forecast layout! Learn more

10-Day Weather Forecast

Advertisements
Track Severe Weather on mobile